sensor_id;sensor_type;location;lat;lon;timestamp;temperature;humidity
1766;DHT22;880;52.452;8.656;2022-11-20T00:01:28;-2.20;99.90
1766;DHT22;880;52.452;8.656;2022-11-20T00:03:56;-2.30;99.90
1766;DHT22;880;52.452;8.656;2022-11-20T00:06:25;-2.40;99.90
1766;DHT22;880;52.452;8.656;2022-11-20T00:08:58;-2.30;99.90
1766;DHT22;880;52.452;8.656;2022-11-20T00:11:28;-2.30;99.90
1766;DHT22;880;52.452;8.656;2022-11-20T00:13:58;-2.20;99.90
1766;DHT22;880;52.452;8.656;2022-11-20T00:16:28;-2.30;99.90
1766;DHT22;880;52.452;8.656;2022-11-20T00:18:56;-2.30;99.90
1766;DHT22;880;52.452;8.656;2022-11-20T00:21:25;-2.40;99.90
1766;DHT22;880;52.452;8.656;2022-11-20T00:23:55;-2.50;99.90
1766;DHT22;880;52.452;8.656;2022-11-20T00:26:24;-2.50;99.90
1766;DHT22;880;52.452;8.656;2022-11-20T00:28:59;-2.60;99.90
1766;DHT22;880;52.452;8.656;2022-11-20T00:31:27;-2.70;99.90
1766;DHT22;880;52.452;8.656;2022-11-20T00:33:54;-2.70;99.90
1766;DHT22;880;52.452;8.656;2022-11-20T00:36:24;-2.60;99.90
1766;DHT22;880;52.452;8.656;2022-11-20T00:38:53;-2.70;99.90
1766;DHT22;880;52.452;8.656;2022-11-20T00:41:21;-2.70;99.90
1766;DHT22;880;52.452;8.656;2022-11-20T00:43:49;-2.80;99.90
1766;DHT22;880;52.452;8.656;2022-11-20T00:46:20;-2.70;99.90
1766;DHT22;880;52.452;8.656;2022-11-20T00:48:51;-2.70;99.90
1766;DHT22;880;52.452;8.656;2022-11-20T00:51:20;-2.60;99.90
1766;DHT22;880;52.452;8.656;2022-11-20T00:53:49;-2.70;99.90
1766;DHT22;880;52.452;8.656;2022-11-20T00:56:18;-2.70;99.90
1766;DHT22;880;52.452;8.656;2022-11-20T00:58:47;-2.70;99.90
1766;DHT22;880;52.452;8.656;2022-11-20T01:01:25;-2.70;99.90
1766;DHT22;880;52.452;8.656;2022-11-20T01:03:55;-2.70;99.90
1766;DHT22;880;52.452;8.656;2022-11-20T01:06:32;-2.70;99.90
1766;DHT22;880;52.452;8.656;2022-11-20T01:09:03;-2.70;99.90
1766;DHT22;880;52.452;8.656;2022-11-20T01:11:34;-2.70;99.90
1766;DHT22;880;52.452;8.656;2022-11-20T01:14:04;-2.60;99.90
1766;DHT22;880;52.452;8.656;2022-11-20T01:16:36;-2.60;99.90
1766;DHT22;880;52.452;8.656;2022-11-20T01:19:05;-2.70;99.90
1766;DHT22;880;52.452;8.656;2022-11-20T01:21:37;-2.70;99.90
1766;DHT22;880;52.452;8.656;2022-11-20T01:24:07;-2.70;99.90
1766;DHT22;880;52.452;8.656;2022-11-20T01:26:37;-2.70;99.90
1766;DHT22;880;52.452;8.656;2022-11-20T01:29:05;-2.70;99.90
1766;DHT22;880;52.452;8.656;2022-11-20T01:31:35;-2.70;99.90
1766;DHT22;880;52.452;8.656;2022-11-20T01:34:08;-2.70;99.90
1766;DHT22;880;52.452;8.656;2022-11-20T01:36:38;-2.70;99.90
1766;DHT22;880;52.452;8.656;2022-11-20T01:39:09;-2.80;99.90
1766;DHT22;880;52.452;8.656;2022-11-20T01:41:44;-2.80;99.90
1766;DHT22;880;52.452;8.656;2022-11-20T01:44:57;-2.90;99.90
1766;DHT22;880;52.452;8.656;2022-11-20T01:47:38;-2.80;99.90
1766;DHT22;880;52.452;8.656;2022-11-20T01:50:12;-2.80;99.90
1766;DHT22;880;52.452;8.656;2022-11-20T01:52:59;-2.90;99.90
1766;DHT22;880;52.452;8.656;2022-11-20T01:55:32;-2.90;99.90
1766;DHT22;880;52.452;8.656;2022-11-20T01:58:01;-3.00;99.90
1766;DHT22;880;52.452;8.656;2022-11-20T02:00:29;-3.00;99.90
1766;DHT22;880;52.452;8.656;2022-11-20T02:03:02;-3.00;99.90
1766;DHT22;880;52.452;8.656;2022-11-20T02:05:38;-3.00;99.90
1766;DHT22;880;52.452;8.656;2022-11-20T02:08:08;-3.00;99.90
1766;DHT22;880;52.452;8.656;2022-11-20T02:10:35;-3.10;99.90
1766;DHT22;880;52.452;8.656;2022-11-20T02:13:03;-3.00;99.90
1766;DHT22;880;52.452;8.656;2022-11-20T02:15:49;-3.10;99.90
1766;DHT22;880;52.452;8.656;2022-11-20T02:18:19;-3.10;99.90
1766;DHT22;880;52.452;8.656;2022-11-20T02:20:49;-3.00;99.90
1766;DHT22;880;52.452;8.656;2022-11-20T02:26:58;-3.10;99.90
1766;DHT22;880;52.452;8.656;2022-11-20T02:34:54;-3.20;99.90
1766;DHT22;880;52.452;8.656;2022-11-20T02:37:21;-3.20;99.90
1766;DHT22;880;52.452;8.656;2022-11-20T02:39:50;-3.10;99.90
1766;DHT22;880;52.452;8.656;2022-11-20T02:42:18;-3.10;99.90
1766;DHT22;880;52.452;8.656;2022-11-20T02:44:45;-3.10;99.90
1766;DHT22;880;52.452;8.656;2022-11-20T02:47:12;-3.10;99.90
1766;DHT22;880;52.452;8.656;2022-11-20T02:49:39;-3.10;99.90
1766;DHT22;880;52.452;8.656;2022-11-20T02:52:06;-3.00;99.90
1766;DHT22;880;52.452;8.656;2022-11-20T02:54:33;-3.00;99.90
1766;DHT22;880;52.452;8.656;2022-11-20T02:57:00;-3.00;99.90
1766;DHT22;880;52.452;8.656;2022-11-20T02:59:27;-3.00;99.90
1766;DHT22;880;52.452;8.656;2022-11-20T03:01:54;-3.00;99.90
1766;DHT22;880;52.452;8.656;2022-11-20T03:04:21;-2.90;99.90
1766;DHT22;880;52.452;8.656;2022-11-20T03:06:48;-2.90;99.90
1766;DHT22;880;52.452;8.656;2022-11-20T03:09:15;-2.90;99.90
1766;DHT22;880;52.452;8.656;2022-11-20T03:11:42;-2.90;99.90
1766;DHT22;880;52.452;8.656;2022-11-20T03:14:09;-2.90;99.90
1766;DHT22;880;52.452;8.656;2022-11-20T03:16:36;-2.90;99.90
1766;DHT22;880;52.452;8.656;2022-11-20T03:19:03;-2.90;99.90
1766;DHT22;880;52.452;8.656;2022-11-20T03:21:30;-2.90;99.90
1766;DHT22;880;52.452;8.656;2022-11-20T03:23:57;-2.90;99.90
1766;DHT22;880;52.452;8.656;2022-11-20T03:26:25;-3.00;99.90
1766;DHT22;880;52.452;8.656;2022-11-20T03:28:54;-3.00;99.90
1766;DHT22;880;52.452;8.656;2022-11-20T03:31:27;-3.00;99.90
1766;DHT22;880;52.452;8.656;2022-11-20T03:33:57;-3.00;99.90
1766;DHT22;880;52.452;8.656;2022-11-20T03:36:25;-3.00;99.90
1766;DHT22;880;52.452;8.656;2022-11-20T03:38:56;-3.00;99.90
1766;DHT22;880;52.452;8.656;2022-11-20T03:41:26;-2.90;99.90
1766;DHT22;880;52.452;8.656;2022-11-20T03:44:00;-2.90;99.90
1766;DHT22;880;52.452;8.656;2022-11-20T03:46:28;-2.90;99.90
1766;DHT22;880;52.452;8.656;2022-11-20T03:48:56;-2.90;99.90
1766;DHT22;880;52.452;8.656;2022-11-20T03:51:25;-2.90;99.90
1766;DHT22;880;52.452;8.656;2022-11-20T03:53:58;-2.80;99.90
1766;DHT22;880;52.452;8.656;2022-11-20T03:56:30;-2.80;99.90
1766;DHT22;880;52.452;8.656;2022-11-20T03:58:58;-2.90;99.90
1766;DHT22;880;52.452;8.656;2022-11-20T04:01:27;-2.90;99.90
1766;DHT22;880;52.452;8.656;2022-11-20T04:03:57;-2.90;99.90
1766;DHT22;880;52.452;8.656;2022-11-20T04:06:29;-2.80;99.90
1766;DHT22;880;52.452;8.656;2022-11-20T04:08:58;-2.80;99.90
1766;DHT22;880;52.452;8.656;2022-11-20T04:11:30;-2.70;99.90
1766;DHT22;880;52.452;8.656;2022-11-20T04:14:04;-2.60;99.90
1766;DHT22;880;52.452;8.656;2022-11-20T04:16:35;-2.50;99.90
1766;DHT22;880;52.452;8.656;2022-11-20T04:19:04;-2.50;99.90
1766;DHT22;880;52.452;8.656;2022-11-20T04:21:33;-2.50;99.90
1766;DHT22;880;52.452;8.656;2022-11-20T04:24:00;-2.50;99.90
1766;DHT22;880;52.452;8.656;2022-11-20T04:26:28;-2.40;99.90
1766;DHT22;880;52.452;8.656;2022-11-20T04:28:57;-2.30;99.90
1766;DHT22;880;52.452;8.656;2022-11-20T04:31:27;-2.30;99.90
1766;DHT22;880;52.452;8.656;2022-11-20T04:33:55;-2.30;99.90
1766;DHT22;880;52.452;8.656;2022-11-20T04:36:26;-2.30;99.90
1766;DHT22;880;52.452;8.656;2022-11-20T04:39:03;-2.30;99.90
1766;DHT22;880;52.452;8.656;2022-11-20T04:41:35;-2.30;99.90
1766;DHT22;880;52.452;8.656;2022-11-20T04:44:04;-2.20;99.90
1766;DHT22;880;52.452;8.656;2022-11-20T04:46:34;-2.20;99.90
1766;DHT22;880;52.452;8.656;2022-11-20T04:49:03;-2.20;99.90
1766;DHT22;880;52.452;8.656;2022-11-20T04:51:30;-2.20;99.90
1766;DHT22;880;52.452;8.656;2022-11-20T04:53:57;-2.20;99.90
1766;DHT22;880;52.452;8.656;2022-11-20T04:56:24;-2.20;99.90
1766;DHT22;880;52.452;8.656;2022-11-20T04:58:51;-2.20;99.90
1766;DHT22;880;52.452;8.656;2022-11-20T05:01:21;-2.20;99.90
1766;DHT22;880;52.452;8.656;2022-11-20T05:03:50;-2.20;99.90
1766;DHT22;880;52.452;8.656;2022-11-20T05:06:19;-2.10;99.90
1766;DHT22;880;52.452;8.656;2022-11-20T05:08:47;-2.10;99.90
1766;DHT22;880;52.452;8.656;2022-11-20T05:11:17;-2.00;99.90
1766;DHT22;880;52.452;8.656;2022-11-20T05:13:48;-1.90;99.90
1766;DHT22;880;52.452;8.656;2022-11-20T05:16:21;-1.90;99.90
1766;DHT22;880;52.452;8.656;2022-11-20T05:18:50;-1.90;99.90
1766;DHT22;880;52.452;8.656;2022-11-20T05:21:18;-1.80;99.90
1766;DHT22;880;52.452;8.656;2022-11-20T05:23:46;-1.80;99.90
1766;DHT22;880;52.452;8.656;2022-11-20T05:26:20;-1.80;99.90
1766;DHT22;880;52.452;8.656;2022-11-20T05:28:51;-1.80;99.90
1766;DHT22;880;52.452;8.656;2022-11-20T05:31:20;-1.80;99.90
1766;DHT22;880;52.452;8.656;2022-11-20T05:33:53;-1.70;99.90
1766;DHT22;880;52.452;8.656;2022-11-20T05:36:21;-1.80;99.90
1766;DHT22;880;52.452;8.656;2022-11-20T05:38:48;-1.80;99.90
1766;DHT22;880;52.452;8.656;2022-11-20T05:41:18;-1.80;99.90
1766;DHT22;880;52.452;8.656;2022-11-20T05:43:48;-1.80;99.90
1766;DHT22;880;52.452;8.656;2022-11-20T05:46:17;-1.70;99.90
1766;DHT22;880;52.452;8.656;2022-11-20T05:48:53;-1.70;99.90
1766;DHT22;880;52.452;8.656;2022-11-20T05:51:21;-1.70;99.90
1766;DHT22;880;52.452;8.656;2022-11-20T05:53:49;-1.80;99.90
1766;DHT22;880;52.452;8.656;2022-11-20T05:56:18;-1.80;99.90
1766;DHT22;880;52.452;8.656;2022-11-20T05:58:47;-1.80;99.90
1766;DHT22;880;52.452;8.656;2022-11-20T06:03:45;-1.70;99.90
1766;DHT22;880;52.452;8.656;2022-11-20T06:06:15;-1.60;99.90
1766;DHT22;880;52.452;8.656;2022-11-20T06:08:43;-1.60;99.90
1766;DHT22;880;52.452;8.656;2022-11-20T06:11:12;-1.70;99.90
1766;DHT22;880;52.452;8.656;2022-11-20T06:13:40;-1.60;99.90
1766;DHT22;880;52.452;8.656;2022-11-20T06:16:09;-1.70;99.90
1766;DHT22;880;52.452;8.656;2022-11-20T06:18:37;-1.60;99.90
1766;DHT22;880;52.452;8.656;2022-11-20T06:21:13;-1.60;99.90
1766;DHT22;880;52.452;8.656;2022-11-20T06:23:42;-1.60;99.90
1766;DHT22;880;52.452;8.656;2022-11-20T06:26:14;-1.50;99.90
1766;DHT22;880;52.452;8.656;2022-11-20T06:28:44;-1.50;99.90
1766;DHT22;880;52.452;8.656;2022-11-20T06:31:13;-1.50;99.90
1766;DHT22;880;52.452;8.656;2022-11-20T06:33:41;-1.50;99.90
1766;DHT22;880;52.452;8.656;2022-11-20T06:36:11;-1.60;99.90
1766;DHT22;880;52.452;8.656;2022-11-20T06:38:39;-1.50;99.90
1766;DHT22;880;52.452;8.656;2022-11-20T06:41:11;-1.50;99.90
1766;DHT22;880;52.452;8.656;2022-11-20T06:43:40;-1.50;99.90
1766;DHT22;880;52.452;8.656;2022-11-20T06:46:09;-1.50;99.90
1766;DHT22;880;52.452;8.656;2022-11-20T06:48:37;-1.50;99.90
1766;DHT22;880;52.452;8.656;2022-11-20T06:51:06;-1.50;99.90
1766;DHT22;880;52.452;8.656;2022-11-20T06:53:34;-1.40;99.90
1766;DHT22;880;52.452;8.656;2022-11-20T06:56:02;-1.40;99.90
1766;DHT22;880;52.452;8.656;2022-11-20T06:58:31;-1.30;99.90
1766;DHT22;880;52.452;8.656;2022-11-20T07:01:04;-1.30;99.90
1766;DHT22;880;52.452;8.656;2022-11-20T07:03:33;-1.30;99.90
1766;DHT22;880;52.452;8.656;2022-11-20T07:06:01;-1.20;99.90
1766;DHT22;880;52.452;8.656;2022-11-20T07:08:29;-1.20;99.90
1766;DHT22;880;52.452;8.656;2022-11-20T07:11:00;-1.20;99.90
1766;DHT22;880;52.452;8.656;2022-11-20T07:13:29;-1.20;99.90
1766;DHT22;880;52.452;8.656;2022-11-20T07:16:01;-1.30;99.90
1766;DHT22;880;52.452;8.656;2022-11-20T07:18:30;-1.30;99.90
1766;DHT22;880;52.452;8.656;2022-11-20T07:21:01;-1.30;99.90
1766;DHT22;880;52.452;8.656;2022-11-20T07:23:29;-1.20;99.90
1766;DHT22;880;52.452;8.656;2022-11-20T07:25:56;-1.20;99.90
1766;DHT22;880;52.452;8.656;2022-11-20T07:28:23;-1.20;99.90
1766;DHT22;880;52.452;8.656;2022-11-20T07:30:53;-1.30;99.90
1766;DHT22;880;52.452;8.656;2022-11-20T07:33:21;-1.30;99.90
1766;DHT22;880;52.452;8.656;2022-11-20T07:35:48;-1.30;99.90
1766;DHT22;880;52.452;8.656;2022-11-20T07:38:15;-1.30;99.90
1766;DHT22;880;52.452;8.656;2022-11-20T07:40:42;-1.30;99.90
1766;DHT22;880;52.452;8.656;2022-11-20T07:43:09;-1.30;99.90
1766;DHT22;880;52.452;8.656;2022-11-20T07:45:36;-1.30;99.90
1766;DHT22;880;52.452;8.656;2022-11-20T07:48:03;-1.30;99.90
1766;DHT22;880;52.452;8.656;2022-11-20T07:50:30;-1.30;99.90
1766;DHT22;880;52.452;8.656;2022-11-20T07:53:02;-1.30;99.90
1766;DHT22;880;52.452;8.656;2022-11-20T07:55:31;-1.20;99.90
1766;DHT22;880;52.452;8.656;2022-11-20T07:57:58;-1.20;99.90
1766;DHT22;880;52.452;8.656;2022-11-20T08:00:26;-1.20;99.90
1766;DHT22;880;52.452;8.656;2022-11-20T08:02:53;-1.20;99.90
1766;DHT22;880;52.452;8.656;2022-11-20T08:05:20;-1.10;99.90
1766;DHT22;880;52.452;8.656;2022-11-20T08:07:48;-1.10;99.90
1766;DHT22;880;52.452;8.656;2022-11-20T08:10:15;-1.00;99.90
1766;DHT22;880;52.452;8.656;2022-11-20T08:12:50;-1.00;99.90
1766;DHT22;880;52.452;8.656;2022-11-20T08:15:38;-1.00;99.90
1766;DHT22;880;52.452;8.656;2022-11-20T08:18:08;-0.90;99.90
1766;DHT22;880;52.452;8.656;2022-11-20T08:20:57;-0.90;99.90
1766;DHT22;880;52.452;8.656;2022-11-20T08:23:24;-0.80;99.90
1766;DHT22;880;52.452;8.656;2022-11-20T08:25:51;-0.80;99.90
1766;DHT22;880;52.452;8.656;2022-11-20T08:28:18;-0.80;99.90
1766;DHT22;880;52.452;8.656;2022-11-20T08:30:49;-0.80;99.90
1766;DHT22;880;52.452;8.656;2022-11-20T08:33:17;-0.80;99.90
1766;DHT22;880;52.452;8.656;2022-11-20T08:35:45;-0.80;99.90
1766;DHT22;880;52.452;8.656;2022-11-20T08:38:12;-0.80;99.90
1766;DHT22;880;52.452;8.656;2022-11-20T08:40:39;-0.70;99.90
1766;DHT22;880;52.452;8.656;2022-11-20T08:43:06;-0.60;99.90
1766;DHT22;880;52.452;8.656;2022-11-20T08:45:33;-0.60;99.90
1766;DHT22;880;52.452;8.656;2022-11-20T08:48:04;-0.60;99.90
1766;DHT22;880;52.452;8.656;2022-11-20T08:50:31;-0.60;99.90
1766;DHT22;880;52.452;8.656;2022-11-20T08:53:06;-0.60;99.90
1766;DHT22;880;52.452;8.656;2022-11-20T08:55:33;-0.50;99.90
1766;DHT22;880;52.452;8.656;2022-11-20T08:58:06;-0.50;99.90
1766;DHT22;880;52.452;8.656;2022-11-20T09:00:34;-0.40;99.90
1766;DHT22;880;52.452;8.656;2022-11-20T09:03:01;-0.40;99.90
1766;DHT22;880;52.452;8.656;2022-11-20T09:05:28;-0.40;99.90
1766;DHT22;880;52.452;8.656;2022-11-20T09:07:57;-0.30;99.90
1766;DHT22;880;52.452;8.656;2022-11-20T09:10:25;-0.30;99.90
1766;DHT22;880;52.452;8.656;2022-11-20T09:12:53;-0.30;99.90
1766;DHT22;880;52.452;8.656;2022-11-20T09:15:22;-0.30;99.90
1766;DHT22;880;52.452;8.656;2022-11-20T09:17:53;-0.30;99.90
1766;DHT22;880;52.452;8.656;2022-11-20T09:20:25;-0.30;99.90
1766;DHT22;880;52.452;8.656;2022-11-20T09:22:55;-0.30;99.90
1766;DHT22;880;52.452;8.656;2022-11-20T09:25:23;-0.30;99.90
1766;DHT22;880;52.452;8.656;2022-11-20T09:27:57;-0.30;99.90
1766;DHT22;880;52.452;8.656;2022-11-20T09:30:26;-0.30;99.90
1766;DHT22;880;52.452;8.656;2022-11-20T09:32:53;-0.30;99.90
1766;DHT22;880;52.452;8.656;2022-11-20T09:35:20;-0.30;99.90
1766;DHT22;880;52.452;8.656;2022-11-20T09:37:48;-0.30;99.90
1766;DHT22;880;52.452;8.656;2022-11-20T09:40:19;-0.20;99.90
1766;DHT22;880;52.452;8.656;2022-11-20T09:42:59;-0.10;99.90
1766;DHT22;880;52.452;8.656;2022-11-20T09:45:50;-0.10;99.90
1766;DHT22;880;52.452;8.656;2022-11-20T09:48:42;-0.10;99.90
1766;DHT22;880;52.452;8.656;2022-11-20T09:56:55;0.00;99.90
1766;DHT22;880;52.452;8.656;2022-11-20T09:59:46;0.00;99.90
1766;DHT22;880;52.452;8.656;2022-11-20T10:02:30;0.00;99.90
1766;DHT22;880;52.452;8.656;2022-11-20T10:05:09;-0.10;99.90
1766;DHT22;880;52.452;8.656;2022-11-20T10:08:37;-0.10;99.90
1766;DHT22;880;52.452;8.656;2022-11-20T10:24:52;0.10;99.90
1766;DHT22;880;52.452;8.656;2022-11-20T10:30:28;0.20;99.90
1766;DHT22;880;52.452;8.656;2022-11-20T10:33:26;0.20;99.90
1766;DHT22;880;52.452;8.656;2022-11-20T10:36:24;0.30;99.90
1766;DHT22;880;52.452;8.656;2022-11-20T10:41:46;0.30;99.90
1766;DHT22;880;52.452;8.656;2022-11-20T10:44:19;0.40;99.90
1766;DHT22;880;52.452;8.656;2022-11-20T10:47:16;0.50;99.90
1766;DHT22;880;52.452;8.656;2022-11-20T10:49:55;0.50;99.90
1766;DHT22;880;52.452;8.656;2022-11-20T10:55:46;0.60;99.90
1766;DHT22;880;52.452;8.656;2022-11-20T10:58:26;0.60;99.90
1766;DHT22;880;52.452;8.656;2022-11-20T11:01:18;0.60;99.90
1766;DHT22;880;52.452;8.656;2022-11-20T11:03:52;0.60;99.90
1766;DHT22;880;52.452;8.656;2022-11-20T11:06:32;0.70;99.90
1766;DHT22;880;52.452;8.656;2022-11-20T11:09:09;0.70;99.90
1766;DHT22;880;52.452;8.656;2022-11-20T11:11:42;0.80;99.90
1766;DHT22;880;52.452;8.656;2022-11-20T11:14:13;0.90;99.90
1766;DHT22;880;52.452;8.656;2022-11-20T11:17:01;1.10;99.90
1766;DHT22;880;52.452;8.656;2022-11-20T11:19:28;1.20;99.90
1766;DHT22;880;52.452;8.656;2022-11-20T11:21:56;1.30;99.90
1766;DHT22;880;52.452;8.656;2022-11-20T11:24:28;1.50;99.90
1766;DHT22;880;52.452;8.656;2022-11-20T11:27:13;1.60;99.90
1766;DHT22;880;52.452;8.656;2022-11-20T11:29:45;1.70;99.90
1766;DHT22;880;52.452;8.656;2022-11-20T11:32:13;1.90;99.90
1766;DHT22;880;52.452;8.656;2022-11-20T11:34:42;2.10;99.90
1766;DHT22;880;52.452;8.656;2022-11-20T11:37:19;2.20;99.90
1766;DHT22;880;52.452;8.656;2022-11-20T11:39:48;2.40;99.90
1766;DHT22;880;52.452;8.656;2022-11-20T11:42:39;2.50;99.90
1766;DHT22;880;52.452;8.656;2022-11-20T11:45:14;2.60;99.90
1766;DHT22;880;52.452;8.656;2022-11-20T11:55:58;2.70;99.90
1766;DHT22;880;52.452;8.656;2022-11-20T11:58:46;2.70;99.90
1766;DHT22;880;52.452;8.656;2022-11-20T12:01:34;2.70;99.90
1766;DHT22;880;52.452;8.656;2022-11-20T12:10:41;2.50;99.90
1766;DHT22;880;52.452;8.656;2022-11-20T12:13:26;2.50;99.90
1766;DHT22;880;52.452;8.656;2022-11-20T12:16:04;2.50;99.90
1766;DHT22;880;52.452;8.656;2022-11-20T12:18:31;2.60;99.90
1766;DHT22;880;52.452;8.656;2022-11-20T12:21:18;2.90;99.90
1766;DHT22;880;52.452;8.656;2022-11-20T12:30:11;3.50;99.90
1766;DHT22;880;52.452;8.656;2022-11-20T12:35:59;3.90;99.90
1766;DHT22;880;52.452;8.656;2022-11-20T12:38:51;4.00;99.90
1766;DHT22;880;52.452;8.656;2022-11-20T13:00:14;4.90;99.90
1766;DHT22;880;52.452;8.656;2022-11-20T13:06:11;5.00;99.90
1766;DHT22;880;52.452;8.656;2022-11-20T13:08:53;5.00;99.90
1766;DHT22;880;52.452;8.656;2022-11-20T13:11:43;5.10;99.90
1766;DHT22;880;52.452;8.656;2022-11-20T13:19:52;5.60;99.90
1766;DHT22;880;52.452;8.656;2022-11-20T13:22:29;5.70;99.90
1766;DHT22;880;52.452;8.656;2022-11-20T13:25:30;5.80;99.90
1766;DHT22;880;52.452;8.656;2022-11-20T13:28:03;5.90;99.90
1766;DHT22;880;52.452;8.656;2022-11-20T13:30:49;6.10;99.90
1766;DHT22;880;52.452;8.656;2022-11-20T13:36:23;6.20;99.90
1766;DHT22;880;52.452;8.656;2022-11-20T13:38:54;6.20;99.90
1766;DHT22;880;52.452;8.656;2022-11-20T13:41:30;6.10;99.90
1766;DHT22;880;52.452;8.656;2022-11-20T13:44:12;6.10;99.90
1766;DHT22;880;52.452;8.656;2022-11-20T13:46:58;6.00;99.90
1766;DHT22;880;52.452;8.656;2022-11-20T13:55:38;5.60;99.90
1766;DHT22;880;52.452;8.656;2022-11-20T14:01:20;5.30;99.90
1766;DHT22;880;52.452;8.656;2022-11-20T14:03:48;5.40;99.90
1766;DHT22;880;52.452;8.656;2022-11-20T14:06:40;5.20;99.90
1766;DHT22;880;52.452;8.656;2022-11-20T14:09:12;5.10;99.90
1766;DHT22;880;52.452;8.656;2022-11-20T14:11:51;5.00;99.90
1766;DHT22;880;52.452;8.656;2022-11-20T14:14:20;4.70;99.90
1766;DHT22;880;52.452;8.656;2022-11-20T14:16:50;4.70;99.90
1766;DHT22;880;52.452;8.656;2022-11-20T14:22:33;4.50;99.90
1766;DHT22;880;52.452;8.656;2022-11-20T14:24:41;4.50;99.90
1766;DHT22;880;52.452;8.656;2022-11-20T14:27:17;4.30;99.90
1766;DHT22;880;52.452;8.656;2022-11-20T14:29:47;4.10;99.90
1766;DHT22;880;52.452;8.656;2022-11-20T14:32:17;4.00;99.90
1766;DHT22;880;52.452;8.656;2022-11-20T14:34:49;3.90;99.90
1766;DHT22;880;52.452;8.656;2022-11-20T14:37:20;3.80;99.90
1766;DHT22;880;52.452;8.656;2022-11-20T14:39:52;3.80;99.90
1766;DHT22;880;52.452;8.656;2022-11-20T14:42:21;3.70;99.90
1766;DHT22;880;52.452;8.656;2022-11-20T14:44:51;3.70;99.90
1766;DHT22;880;52.452;8.656;2022-11-20T14:47:23;3.70;99.90
1766;DHT22;880;52.452;8.656;2022-11-20T14:49:52;3.60;99.90
1766;DHT22;880;52.452;8.656;2022-11-20T14:52:25;3.60;99.90
1766;DHT22;880;52.452;8.656;2022-11-20T14:54:58;3.50;99.90
1766;DHT22;880;52.452;8.656;2022-11-20T14:57:35;3.40;99.90
1766;DHT22;880;52.452;8.656;2022-11-20T15:00:23;3.30;99.90
1766;DHT22;880;52.452;8.656;2022-11-20T15:02:51;3.30;99.90
1766;DHT22;880;52.452;8.656;2022-11-20T15:05:21;3.30;99.90
1766;DHT22;880;52.452;8.656;2022-11-20T15:08:04;3.20;99.90
1766;DHT22;880;52.452;8.656;2022-11-20T15:10:33;3.10;99.90
1766;DHT22;880;52.452;8.656;2022-11-20T15:13:05;3.10;99.90
1766;DHT22;880;52.452;8.656;2022-11-20T15:15:48;2.90;99.90
1766;DHT22;880;52.452;8.656;2022-11-20T15:18:39;2.70;99.90
1766;DHT22;880;52.452;8.656;2022-11-20T15:21:13;2.70;99.90
1766;DHT22;880;52.452;8.656;2022-11-20T15:23:42;2.60;99.90
1766;DHT22;880;52.452;8.656;2022-11-20T15:26:11;2.60;99.90
1766;DHT22;880;52.452;8.656;2022-11-20T15:28:46;2.40;99.90
1766;DHT22;880;52.452;8.656;2022-11-20T15:31:18;2.30;99.90
1766;DHT22;880;52.452;8.656;2022-11-20T15:33:46;2.30;99.90
1766;DHT22;880;52.452;8.656;2022-11-20T15:36:14;2.20;99.90
1766;DHT22;880;52.452;8.656;2022-11-20T15:38:41;2.10;99.90
1766;DHT22;880;52.452;8.656;2022-11-20T15:41:08;2.10;99.90
1766;DHT22;880;52.452;8.656;2022-11-20T15:43:36;2.00;99.90
1766;DHT22;880;52.452;8.656;2022-11-20T15:46:13;2.00;99.90
1766;DHT22;880;52.452;8.656;2022-11-20T15:48:51;1.90;99.90
1766;DHT22;880;52.452;8.656;2022-11-20T15:53:58;1.90;99.90
1766;DHT22;880;52.452;8.656;2022-11-20T15:56:25;1.90;99.90
1766;DHT22;880;52.452;8.656;2022-11-20T15:58:53;1.90;99.90
1766;DHT22;880;52.452;8.656;2022-11-20T16:01:21;1.90;99.90
1766;DHT22;880;52.452;8.656;2022-11-20T16:03:49;1.90;99.90
1766;DHT22;880;52.452;8.656;2022-11-20T16:06:16;1.90;99.90
1766;DHT22;880;52.452;8.656;2022-11-20T16:08:43;1.90;99.90
1766;DHT22;880;52.452;8.656;2022-11-20T16:11:15;1.90;99.90
1766;DHT22;880;52.452;8.656;2022-11-20T16:13:43;1.90;99.90
1766;DHT22;880;52.452;8.656;2022-11-20T16:16:37;1.90;99.90
1766;DHT22;880;52.452;8.656;2022-11-20T16:19:06;1.90;99.90
1766;DHT22;880;52.452;8.656;2022-11-20T16:21:36;1.90;99.90
1766;DHT22;880;52.452;8.656;2022-11-20T16:24:05;1.90;99.90
1766;DHT22;880;52.452;8.656;2022-11-20T16:26:37;1.90;99.90
1766;DHT22;880;52.452;8.656;2022-11-20T16:29:04;1.90;99.90
1766;DHT22;880;52.452;8.656;2022-11-20T16:31:33;1.90;99.90
1766;DHT22;880;52.452;8.656;2022-11-20T16:34:02;1.80;99.90
1766;DHT22;880;52.452;8.656;2022-11-20T16:36:40;1.90;99.90
1766;DHT22;880;52.452;8.656;2022-11-20T16:39:08;1.90;99.90
1766;DHT22;880;52.452;8.656;2022-11-20T16:41:35;1.80;99.90
1766;DHT22;880;52.452;8.656;2022-11-20T16:44:07;1.80;99.90
1766;DHT22;880;52.452;8.656;2022-11-20T16:46:35;1.80;99.90
1766;DHT22;880;52.452;8.656;2022-11-20T16:49:06;1.70;99.90
1766;DHT22;880;52.452;8.656;2022-11-20T16:51:37;1.70;99.90
1766;DHT22;880;52.452;8.656;2022-11-20T16:54:06;1.70;99.90
1766;DHT22;880;52.452;8.656;2022-11-20T16:56:35;1.60;99.90
1766;DHT22;880;52.452;8.656;2022-11-20T16:59:03;1.60;99.90
1766;DHT22;880;52.452;8.656;2022-11-20T17:01:30;1.50;99.90
1766;DHT22;880;52.452;8.656;2022-11-20T17:04:06;1.50;99.90
1766;DHT22;880;52.452;8.656;2022-11-20T17:06:35;1.50;99.90
1766;DHT22;880;52.452;8.656;2022-11-20T17:09:04;1.50;99.90
1766;DHT22;880;52.452;8.656;2022-11-20T17:11:35;1.50;99.90
1766;DHT22;880;52.452;8.656;2022-11-20T17:14:03;1.50;99.90
1766;DHT22;880;52.452;8.656;2022-11-20T17:16:33;1.50;99.90
1766;DHT22;880;52.452;8.656;2022-11-20T17:19:02;1.50;99.90
1766;DHT22;880;52.452;8.656;2022-11-20T17:21:32;1.50;99.90
1766;DHT22;880;52.452;8.656;2022-11-20T17:24:03;1.50;99.90
1766;DHT22;880;52.452;8.656;2022-11-20T17:26:32;1.50;99.90
1766;DHT22;880;52.452;8.656;2022-11-20T17:29:18;1.50;99.90
1766;DHT22;880;52.452;8.656;2022-11-20T17:31:49;1.50;99.90
1766;DHT22;880;52.452;8.656;2022-11-20T17:34:17;1.40;99.90
1766;DHT22;880;52.452;8.656;2022-11-20T17:36:44;1.40;99.90
1766;DHT22;880;52.452;8.656;2022-11-20T17:39:16;1.40;99.90
1766;DHT22;880;52.452;8.656;2022-11-20T17:41:43;1.40;99.90
1766;DHT22;880;52.452;8.656;2022-11-20T17:44:11;1.40;99.90
1766;DHT22;880;52.452;8.656;2022-11-20T17:46:38;1.40;99.90
1766;DHT22;880;52.452;8.656;2022-11-20T17:49:06;1.40;99.90
1766;DHT22;880;52.452;8.656;2022-11-20T17:51:33;1.50;99.90
1766;DHT22;880;52.452;8.656;2022-11-20T17:54:03;1.40;99.90
1766;DHT22;880;52.452;8.656;2022-11-20T17:56:33;1.40;99.90
1766;DHT22;880;52.452;8.656;2022-11-20T17:59:20;1.40;99.90
1766;DHT22;880;52.452;8.656;2022-11-20T18:01:47;1.40;99.90
1766;DHT22;880;52.452;8.656;2022-11-20T18:04:15;1.40;99.90
1766;DHT22;880;52.452;8.656;2022-11-20T18:06:42;1.50;99.90
1766;DHT22;880;52.452;8.656;2022-11-20T18:09:10;1.40;99.90
1766;DHT22;880;52.452;8.656;2022-11-20T18:11:39;1.40;99.90
1766;DHT22;880;52.452;8.656;2022-11-20T18:14:11;1.50;99.90
1766;DHT22;880;52.452;8.656;2022-11-20T18:16:57;1.50;99.90
1766;DHT22;880;52.452;8.656;2022-11-20T18:19:27;1.50;99.90
1766;DHT22;880;52.452;8.656;2022-11-20T18:21:59;1.50;99.90
1766;DHT22;880;52.452;8.656;2022-11-20T18:24:33;1.50;99.90
1766;DHT22;880;52.452;8.656;2022-11-20T18:27:02;1.50;99.90
1766;DHT22;880;52.452;8.656;2022-11-20T18:29:30;1.50;99.90
1766;DHT22;880;52.452;8.656;2022-11-20T18:31:58;1.50;99.90
1766;DHT22;880;52.452;8.656;2022-11-20T18:34:26;1.50;99.90
1766;DHT22;880;52.452;8.656;2022-11-20T18:36:53;1.50;99.90
1766;DHT22;880;52.452;8.656;2022-11-20T18:39:20;1.50;99.90
1766;DHT22;880;52.452;8.656;2022-11-20T18:41:49;1.50;99.90
1766;DHT22;880;52.452;8.656;2022-11-20T18:44:35;1.50;99.90